Loving, Texas
Current Conditions -  °F | °C
As of 3:30 PM on Wednesday 26 Nov 2014 (Local Time) from KRPH Reporting Station
Clear Clear  
Wind Chill: 60°   Ceiling: Unl
Heat Index: 60°   Visibility: 10mi
Dew Point: 38°   Wind: 8mph
Humidity: 44%   Direction: 330°NNW
Pressure: 30.23"   Gusts: NA
Location:  33.26°N, 98.51°W
Report Text: KRPH 262130Z AUTO 33007KT 10SM CLR 16/03 A3023 RMK AO2 T01550031
Loading
Personal Weather Stations






























Interactive Weather Map New forecast layout! Learn more

10-Day Weather Forecast

Advertisements
Track Severe Weather on mobile